Check out our new BloomSky Weather System.

Active alerts

Houston, TX
  Details for Houston, TX Dense Fog Advisory


Thunder radar  blitzortung!


Rain radar more information rain snow radar


Visit our other weather sites:

Template documentation
and downloads

And another site



Weather Underground History page Text

Daily Summary for August 27, 2017 Units:  English    Metric   Both
« Previous Day
Next Day »
Daily Weekly Monthly Yearly Custom
  High: Low: Average:
Temperature: 75.6 °F 72.7 °F 73.8 °F
Dew Point: 75.6 °F 72.7 °F 73.8 °F
Humidity: 100 % 100 % 100 %
Wind Speed: 17.0 mph 0.0 mph 4.1 mph
Wind Gust: 20.0 mph - -
Wind:- - South
Pressure: 29.81 in 29.66 in -
Precipitation: 19.45 in    
Historical Graphs
 
 
Tabular Data for August 27, 2017
Time Temperature Dew Point Pressure Wind Wind Speed Wind Gust Humidity Rainfall Rate (Hourly)
00:03 74.5 °F 74.5 °F 29.81 in ESE 6.0 mph 11.0 mph 100 % 0.67 in
00:08 74.8 °F 74.8 °F 29.81 in ENE 2.0 mph 11.0 mph 100 % 0.66 in
00:13 75.0 °F 75.0 °F 29.81 in East 2.0 mph 11.0 mph 100 % 0.66 in
00:18 75.2 °F 75.2 °F 29.81 in NNE 2.0 mph 9.0 mph 100 % 0.70 in
00:23 75.4 °F 75.4 °F 29.81 in SW 4.0 mph 9.0 mph 100 % 0.70 in
00:28 75.4 °F 75.4 °F 29.81 in ENE 8.0 mph 11.0 mph 100 % 0.70 in
00:33 75.4 °F 75.4 °F 29.81 in NE 5.0 mph 14.0 mph 100 % 0.68 in
00:38 75.4 °F 75.4 °F 29.81 in ENE 8.0 mph 15.0 mph 100 % 0.60 in
00:43 75.4 °F 75.4 °F 29.81 in NNE 4.0 mph 15.0 mph 100 % 0.59 in
00:48 75.2 °F 75.2 °F 29.81 in North 4.0 mph 15.0 mph 100 % 0.69 in
00:53 75.2 °F 75.2 °F 29.79 in East 10.0 mph 15.0 mph 100 % 0.77 in
00:58 75.2 °F 75.2 °F 29.80 in WNW 1.0 mph 13.0 mph 100 % 0.73 in
01:03 75.4 °F 75.4 °F 29.81 in SE 5.0 mph 17.0 mph 100 % 0.73 in
01:08 75.4 °F 75.4 °F 29.81 in ESE 5.0 mph 17.0 mph 100 % 0.79 in
01:13 75.4 °F 75.4 °F 29.80 in SE 2.0 mph 17.0 mph 100 % 0.87 in
01:18 75.4 °F 75.4 °F 29.79 in NE 8.0 mph 10.0 mph 100 % 0.98 in
01:23 75.4 °F 75.4 °F 29.79 in ENE 4.0 mph 9.0 mph 100 % 1.05 in
01:28 75.4 °F 75.4 °F 29.78 in ENE 9.0 mph 9.0 mph 100 % 1.09 in
01:33 75.4 °F 75.4 °F 29.77 in East 8.0 mph 18.0 mph 100 % 1.14 in
01:38 75.4 °F 75.4 °F 29.78 in SE 4.0 mph 18.0 mph 100 % 1.08 in
01:43 75.4 °F 75.4 °F 29.78 in ENE 5.0 mph 18.0 mph 100 % 1.00 in
01:48 75.6 °F 75.6 °F 29.78 in ESE 12.0 mph 16.0 mph 100 % 0.90 in
01:53 75.6 °F 75.6 °F 29.78 in NE 6.0 mph 16.0 mph 100 % 0.84 in
01:58 75.6 °F 75.6 °F 29.79 in ESE 5.0 mph 15.0 mph 100 % 0.83 in
05:47 74.1 °F 74.1 °F 29.77 in ENE 4.0 mph 15.0 mph 100 % 0.81 in
05:48 74.1 °F 74.1 °F 29.77 in ENE 7.0 mph 15.0 mph 100 % 0.81 in
10:49 74.3 °F 74.3 °F 29.77 in NE 11.0 mph 15.0 mph 100 % 0.81 in
10:54 74.1 °F 74.1 °F 29.76 in WNW 7.0 mph 11.0 mph 100 % 0.34 in
10:59 74.1 °F 74.1 °F 29.77 in West 2.0 mph 11.0 mph 100 % 0.43 in
11:04 73.9 °F 73.9 °F 29.77 in NW 4.0 mph 11.0 mph 100 % 0.46 in
11:09 73.9 °F 73.9 °F 29.76 in NE 7.0 mph 10.0 mph 100 % 0.49 in
11:14 74.1 °F 74.1 °F 29.76 in West 3.0 mph 11.0 mph 100 % 0.47 in
11:19 74.1 °F 74.1 °F 29.76 in SE 9.0 mph 11.0 mph 100 % 0.44 in
11:20 73.9 °F 73.9 °F 29.76 in NW 2.0 mph 11.0 mph 100 % 0.42 in
11:25 74.1 °F 74.1 °F 29.76 in NW 5.0 mph 11.0 mph 100 % 0.42 in
11:30 74.1 °F 74.1 °F 29.76 in Calm   11.0 mph 100 % 0.42 in
11:35 74.1 °F 74.1 °F 29.76 in East 6.0 mph 8.0 mph 100 % 0.41 in
11:41 74.3 °F 74.3 °F 29.77 in East 1.0 mph 8.0 mph 100 % 0.39 in
11:45 74.5 °F 74.5 °F 29.77 in NNE 1.0 mph 8.0 mph 100 % 0.39 in
11:51 74.7 °F 74.7 °F 29.78 in Calm   7.0 mph 100 % 0.39 in
11:56 74.7 °F 74.7 °F 29.78 in NE 17.0 mph 17.0 mph 100 % 0.39 in
12:01 74.8 °F 74.8 °F 29.78 in SE 4.0 mph 17.0 mph 100 % 0.52 in
12:06 74.8 °F 74.8 °F 29.77 in ESE 3.0 mph 17.0 mph 100 % 0.50 in
12:11 74.8 °F 74.8 °F 29.76 in Calm   17.0 mph 100 % 0.58 in
12:16 75.0 °F 75.0 °F 29.76 in ENE 3.0 mph 10.0 mph 100 % 0.68 in
12:21 75.0 °F 75.0 °F 29.75 in NW 1.0 mph 7.0 mph 100 % 0.80 in
12:26 75.0 °F 75.0 °F 29.74 in NNW 1.0 mph 5.0 mph 100 % 0.79 in
12:31 75.2 °F 75.2 °F 29.74 in NW 1.0 mph 6.0 mph 100 % 0.78 in
12:36 75.2 °F 75.2 °F 29.74 in East 2.0 mph 11.0 mph 100 % 0.78 in
12:41 75.2 °F 75.2 °F 29.75 in ESE 2.0 mph 12.0 mph 100 % 0.76 in
12:46 75.4 °F 75.4 °F 29.75 in ESE 4.0 mph 13.0 mph 100 % 0.74 in
12:51 75.4 °F 75.4 °F 29.75 in East 3.0 mph 13.0 mph 100 % 0.73 in
12:56 75.4 °F 75.4 °F 29.75 in ESE 2.0 mph 13.0 mph 100 % 0.61 in
13:01 75.2 °F 75.2 °F 29.75 in NW 1.0 mph 11.0 mph 100 % 0.44 in
13:06 75.2 °F 75.2 °F 29.74 in ENE 3.0 mph 11.0 mph 100 % 0.40 in
13:11 75.2 °F 75.2 °F 29.74 in NE 2.0 mph 11.0 mph 100 % 0.30 in
13:16 75.0 °F 75.0 °F 29.75 in ENE 3.0 mph 8.0 mph 100 % 0.21 in
13:21 74.8 °F 74.8 °F 29.75 in North 3.0 mph 8.0 mph 100 % 0.10 in
13:26 74.7 °F 74.7 °F 29.73 in North 3.0 mph 8.0 mph 100 % 0.09 in
13:31 74.5 °F 74.5 °F 29.75 in ENE 5.0 mph 10.0 mph 100 % 0.09 in
13:36 74.3 °F 74.3 °F 29.75 in ENE 3.0 mph 13.0 mph 100 % 0.27 in
13:41 74.1 °F 74.1 °F 29.75 in ESE 2.0 mph 13.0 mph 100 % 0.38 in
13:46 74.1 °F 74.1 °F 29.75 in ENE 5.0 mph 13.0 mph 100 % 0.43 in
13:51 74.1 °F 74.1 °F 29.75 in ESE 1.0 mph 10.0 mph 100 % 0.44 in
13:56 74.1 °F 74.1 °F 29.75 in ESE 2.0 mph 8.0 mph 100 % 0.59 in
14:02 74.1 °F 74.1 °F 29.75 in ENE 3.0 mph 8.0 mph 100 % 0.65 in
14:07 74.1 °F 74.1 °F 29.75 in East 6.0 mph 7.0 mph 100 % 0.68 in
14:12 74.1 °F 74.1 °F 29.74 in Calm   10.0 mph 100 % 0.71 in
14:17 74.1 °F 74.1 °F 29.75 in North 1.0 mph 10.0 mph 100 % 0.70 in
14:22 73.9 °F 73.9 °F 29.73 in NW 4.0 mph 10.0 mph 100 % 0.80 in
14:27 73.9 °F 73.9 °F 29.73 in North 1.0 mph 11.0 mph 100 % 0.87 in
14:31 73.9 °F 73.9 °F 29.74 in NNW 1.0 mph 11.0 mph 100 % 0.94 in
14:37 73.9 °F 73.9 °F 29.74 in NNE 2.0 mph 11.0 mph 100 % 0.78 in
14:42 73.9 °F 73.9 °F 29.73 in Calm   8.0 mph 100 % 0.83 in
14:47 73.8 °F 73.8 °F 29.74 in East 1.0 mph 8.0 mph 100 % 0.92 in
14:52 73.8 °F 73.8 °F 29.73 in NW 1.0 mph 8.0 mph 100 % 0.99 in
14:57 73.8 °F 73.8 °F 29.73 in NE 3.0 mph 8.0 mph 100 % 0.96 in
15:02 73.8 °F 73.8 °F 29.73 in SE 2.0 mph 9.0 mph 100 % 0.93 in
15:07 73.8 °F 73.8 °F 29.72 in NE 2.0 mph 9.0 mph 100 % 0.91 in
15:12 73.8 °F 73.8 °F 29.72 in NW 3.0 mph 9.0 mph 100 % 0.88 in
15:17 73.8 °F 73.8 °F 29.72 in ENE 9.0 mph 14.0 mph 100 % 0.91 in
15:22 73.8 °F 73.8 °F 29.73 in West 5.0 mph 14.0 mph 100 % 0.87 in
15:27 73.8 °F 73.8 °F 29.71 in NW 4.0 mph 14.0 mph 100 % 1.03 in
15:32 73.8 °F 73.8 °F 29.71 in NNW 5.0 mph 10.0 mph 100 % 1.04 in
15:37 73.8 °F 73.8 °F 29.71 in Calm   10.0 mph 100 % 1.04 in
15:42 73.8 °F 73.8 °F 29.71 in Calm   10.0 mph 100 % 0.89 in
15:47 73.8 °F 73.8 °F 29.71 in NNW 2.0 mph 8.0 mph 100 % 0.80 in
15:52 73.8 °F 73.8 °F 29.70 in North 5.0 mph 8.0 mph 100 % 0.72 in
15:57 73.6 °F 73.6 °F 29.71 in ENE 1.0 mph 9.0 mph 100 % 0.67 in
16:02 73.6 °F 73.6 °F 29.70 in NNE 7.0 mph 11.0 mph 100 % 0.67 in
16:07 73.2 °F 73.2 °F 29.70 in WNW 2.0 mph 11.0 mph 100 % 0.69 in
16:13 73.2 °F 73.2 °F 29.69 in NE 3.0 mph 14.0 mph 100 % 0.72 in
16:18 73.2 °F 73.2 °F 29.70 in North 2.0 mph 14.0 mph 100 % 0.73 in
16:23 73.2 °F 73.2 °F 29.69 in NE 12.0 mph 14.0 mph 100 % 0.72 in
16:28 73.0 °F 73.0 °F 29.69 in WNW 3.0 mph 13.0 mph 100 % 0.59 in
16:33 73.0 °F 73.0 °F 29.68 in SSW 1.0 mph 13.0 mph 100 % 0.60 in
16:38 73.0 °F 73.0 °F 29.68 in West 4.0 mph 14.0 mph 100 % 0.65 in
16:43 73.0 °F 73.0 °F 29.68 in ENE 5.0 mph 15.0 mph 100 % 0.74 in
16:48 72.9 °F 72.9 °F 29.68 in NNW 5.0 mph 17.0 mph 100 % 0.79 in
16:53 72.9 °F 72.9 °F 29.68 in NE 5.0 mph 17.0 mph 100 % 0.80 in
16:58 72.9 °F 72.9 °F 29.68 in SE 1.0 mph 17.0 mph 100 % 0.81 in
17:03 72.9 °F 72.9 °F 29.69 in North 6.0 mph 14.0 mph 100 % 0.83 in
17:08 72.9 °F 72.9 °F 29.68 in North 6.0 mph 17.0 mph 100 % 0.84 in
17:13 72.9 °F 72.9 °F 29.68 in East 2.0 mph 17.0 mph 100 % 0.84 in
17:18 72.9 °F 72.9 °F 29.68 in East 2.0 mph 17.0 mph 100 % 0.83 in
17:23 72.9 °F 72.9 °F 29.68 in NNW 5.0 mph 13.0 mph 100 % 0.80 in
17:28 72.9 °F 72.9 °F 29.68 in NNW 3.0 mph 13.0 mph 100 % 0.75 in
17:33 72.9 °F 72.9 °F 29.68 in East 4.0 mph 13.0 mph 100 % 0.64 in
17:38 72.9 °F 72.9 °F 29.68 in NNE 3.0 mph 13.0 mph 100 % 0.52 in
17:43 72.9 °F 72.9 °F 29.68 in East 6.0 mph 13.0 mph 100 % 0.45 in
17:48 72.9 °F 72.9 °F 29.68 in West 4.0 mph 14.0 mph 100 % 0.39 in
17:53 72.9 °F 72.9 °F 29.68 in West 2.0 mph 14.0 mph 100 % 0.35 in
17:58 72.9 °F 72.9 °F 29.67 in NNW 6.0 mph 14.0 mph 100 % 0.30 in
18:03 72.9 °F 72.9 °F 29.68 in East 5.0 mph 14.0 mph 100 % 0.26 in
18:08 72.9 °F 72.9 °F 29.67 in WNW 4.0 mph 14.0 mph 100 % 0.22 in
18:13 72.9 °F 72.9 °F 29.68 in NNW 2.0 mph 14.0 mph 100 % 0.18 in
18:18 72.7 °F 72.7 °F 29.68 in WNW 5.0 mph 12.0 mph 100 % 0.17 in
18:23 72.9 °F 72.9 °F 29.68 in East 9.0 mph 11.0 mph 100 % 0.13 in
18:28 72.7 °F 72.7 °F 29.68 in SW 2.0 mph 11.0 mph 100 % 0.08 in
18:33 72.7 °F 72.7 °F 29.67 in WNW 2.0 mph 11.0 mph 100 % 0.10 in
18:38 72.7 °F 72.7 °F 29.67 in WNW 1.0 mph 10.0 mph 100 % 0.09 in
18:43 72.9 °F 72.9 °F 29.67 in NNW 4.0 mph 12.0 mph 100 % 0.09 in
18:48 72.9 °F 72.9 °F 29.67 in NE 5.0 mph 15.0 mph 100 % 0.09 in
18:53 72.9 °F 72.9 °F 29.67 in ENE 7.0 mph 15.0 mph 100 % 0.13 in
18:58 72.9 °F 72.9 °F 29.67 in North 4.0 mph 15.0 mph 100 % 0.15 in
19:03 72.9 °F 72.9 °F 29.67 in North 5.0 mph 14.0 mph 100 % 0.15 in
19:08 72.9 °F 72.9 °F 29.67 in NNW 3.0 mph 14.0 mph 100 % 0.16 in
19:13 72.9 °F 72.9 °F 29.67 in ESE 1.0 mph 15.0 mph 100 % 0.18 in
19:18 72.9 °F 72.9 °F 29.67 in North 7.0 mph 15.0 mph 100 % 0.19 in
19:23 72.9 °F 72.9 °F 29.67 in ENE 5.0 mph 15.0 mph 100 % 0.18 in
19:28 72.9 °F 72.9 °F 29.67 in ENE 2.0 mph 15.0 mph 100 % 0.20 in
19:33 72.9 °F 72.9 °F 29.67 in SW 3.0 mph 15.0 mph 100 % 0.20 in
19:38 72.9 °F 72.9 °F 29.67 in NW 1.0 mph 13.0 mph 100 % 0.26 in
19:43 72.9 °F 72.9 °F 29.67 in NW 2.0 mph 13.0 mph 100 % 0.27 in
19:48 72.9 °F 72.9 °F 29.68 in SE 5.0 mph 13.0 mph 100 % 0.30 in
19:53 73.0 °F 73.0 °F 29.67 in Calm   12.0 mph 100 % 0.31 in
19:58 73.0 °F 73.0 °F 29.67 in Calm   12.0 mph 100 % 0.30 in
20:03 73.0 °F 73.0 °F 29.67 in NNE 7.0 mph 8.0 mph 100 % 0.31 in
20:08 73.0 °F 73.0 °F 29.67 in NNW 2.0 mph 13.0 mph 100 % 0.38 in
20:13 73.0 °F 73.0 °F 29.67 in WNW 4.0 mph 13.0 mph 100 % 0.42 in
20:18 73.0 °F 73.0 °F 29.67 in NNE 5.0 mph 13.0 mph 100 % 0.53 in
20:24 73.0 °F 73.0 °F 29.66 in NNW 6.0 mph 11.0 mph 100 % 0.67 in
20:29 73.0 °F 73.0 °F 29.66 in NW 6.0 mph 15.0 mph 100 % 0.82 in
20:34 73.0 °F 73.0 °F 29.66 in NNW 9.0 mph 15.0 mph 100 % 0.89 in
20:39 73.0 °F 73.0 °F 29.66 in WSW 7.0 mph 17.0 mph 100 % 0.86 in
20:44 73.2 °F 73.2 °F 29.66 in NNE 8.0 mph 17.0 mph 100 % 0.83 in
20:49 73.2 °F 73.2 °F 29.66 in NW 6.0 mph 17.0 mph 100 % 0.83 in
20:54 73.4 °F 73.4 °F 29.66 in ENE 9.0 mph 14.0 mph 100 % 0.78 in
20:59 73.6 °F 73.6 °F 29.66 in NNE 9.0 mph 14.0 mph 100 % 0.81 in
21:04 73.6 °F 73.6 °F 29.67 in North 5.0 mph 18.0 mph 100 % 0.84 in
21:09 73.6 °F 73.6 °F 29.67 in NNE 6.0 mph 18.0 mph 100 % 0.78 in
21:12 73.6 °F 73.6 °F 29.67 in WNW 9.0 mph 18.0 mph 100 % 0.73 in
21:17 73.6 °F 73.6 °F 29.67 in NE 6.0 mph 15.0 mph 100 % 0.64 in
21:22 73.6 °F 73.6 °F 29.66 in ESE 2.0 mph 15.0 mph 100 % 0.52 in
21:27 73.6 °F 73.6 °F 29.67 in SSW 3.0 mph 13.0 mph 100 % 0.39 in
21:32 73.8 °F 73.8 °F 29.66 in NNW 4.0 mph 13.0 mph 100 % 0.33 in
21:37 73.8 °F 73.8 °F 29.66 in NE 3.0 mph 13.0 mph 100 % 0.33 in
21:42 73.8 °F 73.8 °F 29.66 in WNW 5.0 mph 20.0 mph 100 % 0.34 in
21:47 73.8 °F 73.8 °F 29.66 in North 4.0 mph 20.0 mph 100 % 0.42 in
21:52 73.8 °F 73.8 °F 29.67 in NE 8.0 mph 20.0 mph 100 % 0.43 in
21:57 73.8 °F 73.8 °F 29.68 in WNW 7.0 mph 15.0 mph 100 % 0.44 in
22:02 73.6 °F 73.6 °F 29.67 in NW 5.0 mph 16.0 mph 100 % 0.47 in
22:07 73.6 °F 73.6 °F 29.67 in NNW 4.0 mph 18.0 mph 100 % 0.52 in
22:12 73.6 °F 73.6 °F 29.67 in NNW 4.0 mph 18.0 mph 100 % 0.52 in
22:17 73.4 °F 73.4 °F 29.68 in ENE 9.0 mph 18.0 mph 100 % 0.49 in
22:22 73.2 °F 73.2 °F 29.68 in NE 7.0 mph 15.0 mph 100 % 0.55 in
22:27 73.2 °F 73.2 °F 29.68 in North 7.0 mph 15.0 mph 100 % 0.59 in
22:33 73.2 °F 73.2 °F 29.68 in East 4.0 mph 13.0 mph 100 % 0.68 in
22:38 73.2 °F 73.2 °F 29.68 in NNE 14.0 mph 14.0 mph 100 % 0.72 in
22:43 73.2 °F 73.2 °F 29.69 in NNW 6.0 mph 15.0 mph 100 % 0.78 in
22:48 73.2 °F 73.2 °F 29.69 in West 3.0 mph 15.0 mph 100 % 0.75 in
22:53 73.2 °F 73.2 °F 29.69 in NNW 3.0 mph 15.0 mph 100 % 0.81 in
22:58 73.0 °F 73.0 °F 29.69 in NNE 2.0 mph 15.0 mph 100 % 0.86 in
23:03 73.0 °F 73.0 °F 29.69 in North 4.0 mph 17.0 mph 100 % 0.86 in
23:08 73.0 °F 73.0 °F 29.68 in SSW 1.0 mph 17.0 mph 100 % 0.89 in
23:13 73.0 °F 73.0 °F 29.69 in NNE 2.0 mph 17.0 mph 100 % 0.96 in
23:18 73.0 °F 73.0 °F 29.69 in East 3.0 mph 14.0 mph 100 % 1.03 in
23:23 73.0 °F 73.0 °F 29.70 in ENE 5.0 mph 14.0 mph 100 % 0.99 in
23:28 73.0 °F 73.0 °F 29.69 in NNW 2.0 mph 12.0 mph 100 % 0.96 in
23:33 73.0 °F 73.0 °F 29.69 in NNW 5.0 mph 14.0 mph 100 % 1.02 in
23:38 72.9 °F 72.9 °F 29.69 in WNW 4.0 mph 14.0 mph 100 % 1.13 in
23:48 72.9 °F 72.9 °F 29.69 in East 4.0 mph 14.0 mph 100 % 1.11 in
23:53 72.9 °F 72.9 °F 29.70 in NNW 3.0 mph 14.0 mph 100 % 1.03 in
23:58 72.9 °F 72.9 °F 29.70 in North 2.0 mph 9.0 mph 100 % 0.99 in
Spring, Texas: Villages of Bridgestone
Compliments of Weather Underground - 2.25 mb

Script developed by  Jim McMurry - jmcmurry@mwt.net Adapted for the template by  Wim van der Kuil - Leuven-Template.eu

You find our weather info also at:

UK Metoffice

WeatherCloud

Weather Underground

Mid-South Weather Network

AWEKAS

Citizen Weather Observer Program (CWOP)

HAMweather, WeatherForYou, PWS Weather

Equipment we use:

Weather-station
Davis Vantage Vue

Weather-program
Meteohub

Weather-server
Debian 7.9 x86 (Guest)

Provider
DreamHost

Davis Vantage Vue

Meteohub

Debian 7.9 x86 (Guest)

DreamHost